createdAt,value
2023-04-14T00:00:39.867Z,93932.00
2023-04-14T00:01:39.865Z,93934.00
2023-04-14T00:02:40.107Z,93934.00
2023-04-14T00:03:40.155Z,93932.00
2023-04-14T00:04:40.160Z,93932.00
2023-04-14T00:05:40.173Z,93932.00
2023-04-14T00:06:40.212Z,93936.00
2023-04-14T00:07:40.257Z,93938.00
2023-04-14T00:08:40.346Z,93934.00
2023-04-14T00:09:40.373Z,93938.00
2023-04-14T00:10:40.439Z,93936.00
2023-04-14T00:11:40.568Z,93936.00
2023-04-14T00:12:40.578Z,93938.00
2023-04-14T00:13:40.593Z,93936.00
2023-04-14T00:14:40.675Z,93938.00
2023-04-14T00:15:40.784Z,93938.00
2023-04-14T00:16:40.819Z,93936.00
2023-04-14T00:17:40.989Z,93938.00
2023-04-14T00:18:40.907Z,93938.00
2023-04-14T00:19:41.022Z,93938.00
2023-04-14T00:20:41.061Z,93936.00
2023-04-14T00:21:41.156Z,93934.00
2023-04-14T00:22:41.193Z,93936.00
2023-04-14T00:23:41.289Z,93934.00
2023-04-14T00:24:41.298Z,93934.00
2023-04-14T00:25:41.363Z,93934.00
2023-04-14T00:26:41.419Z,93932.00
2023-04-14T00:27:41.494Z,93932.00
2023-04-14T00:28:41.558Z,93932.00
2023-04-14T00:29:41.591Z,93932.00
2023-04-14T00:30:41.679Z,93932.00
2023-04-14T00:31:41.720Z,93934.00
2023-04-14T00:32:41.779Z,93934.00
2023-04-14T00:33:41.827Z,93934.00
2023-04-14T00:34:41.881Z,93928.00
2023-04-14T00:35:41.945Z,93930.00
2023-04-14T00:36:42.020Z,93928.00
2023-04-14T00:37:42.050Z,93926.00
2023-04-14T00:38:42.119Z,93926.00
2023-04-14T00:39:42.182Z,93925.00
2023-04-14T00:40:42.220Z,93923.00
2023-04-14T00:41:42.289Z,93919.00
2023-04-14T00:42:42.332Z,93921.00
2023-04-14T00:43:42.418Z,93925.00
2023-04-14T00:44:42.483Z,93925.00
2023-04-14T00:45:42.523Z,93926.00
2023-04-14T00:46:42.648Z,93926.00
2023-04-14T00:47:42.708Z,93926.00
2023-04-14T00:48:42.750Z,93925.00
2023-04-14T00:49:42.790Z,93928.00
2023-04-14T00:50:42.869Z,93926.00
2023-04-14T00:51:42.877Z,93926.00
2023-04-14T00:52:42.982Z,93925.00
2023-04-14T00:53:43.022Z,93928.00
2023-04-14T00:54:43.069Z,93926.00
2023-04-14T00:55:43.126Z,93930.00
2023-04-14T00:56:43.144Z,93928.00
2023-04-14T00:57:43.213Z,93928.00
2023-04-14T00:58:43.269Z,93926.00
2023-04-14T00:59:43.404Z,93928.00
2023-04-14T01:00:43.372Z,93928.00
2023-04-14T01:01:43.573Z,93930.00
2023-04-14T01:02:43.777Z,93928.00
2023-04-14T01:03:43.919Z,93930.00
2023-04-14T01:04:53.810Z,93926.00
2023-04-14T01:05:44.653Z,93928.00
2023-04-14T01:06:43.700Z,93928.00
2023-04-14T01:07:43.627Z,93928.00
2023-04-14T01:08:43.640Z,93928.00
2023-04-14T01:09:43.622Z,93928.00
2023-04-14T01:10:43.619Z,93928.00
2023-04-14T01:11:43.593Z,93928.00
2023-04-14T01:12:43.627Z,93928.00
2023-04-14T01:13:43.637Z,93926.00
2023-04-14T01:14:43.707Z,93928.00
2023-04-14T01:15:43.712Z,93928.00
2023-04-14T01:16:43.763Z,93926.00
2023-04-14T01:17:43.829Z,93928.00
2023-04-14T01:18:43.917Z,93928.00
2023-04-14T01:19:43.989Z,93930.00
2023-04-14T01:20:44.048Z,93930.00
2023-04-14T01:21:44.039Z,93934.00
2023-04-14T01:22:44.146Z,93932.00
2023-04-14T01:23:44.215Z,93932.00
2023-04-14T01:24:44.346Z,93932.00
2023-04-14T01:25:44.296Z,93930.00
2023-04-14T01:26:44.379Z,93926.00
2023-04-14T01:27:44.441Z,93923.00
2023-04-14T01:28:44.505Z,93921.00
2023-04-14T01:29:44.572Z,93919.00
2023-04-14T01:30:44.608Z,93919.00
2023-04-14T01:31:44.721Z,93915.00
2023-04-14T01:32:44.728Z,93915.00
2023-04-14T01:33:44.754Z,93915.00
2023-04-14T01:34:44.903Z,93909.00
2023-04-14T01:35:44.916Z,93907.00
2023-04-14T01:36:45.022Z,93903.00
2023-04-14T01:37:45.035Z,93903.00
2023-04-14T01:38:45.061Z,93901.00
2023-04-14T01:39:45.150Z,93899.00
2023-04-14T01:40:45.156Z,93897.00
2023-04-14T01:41:45.216Z,93891.00
2023-04-14T01:42:45.264Z,93891.00
2023-04-14T01:43:45.316Z,93891.00
2023-04-14T01:44:45.391Z,93891.00
2023-04-14T01:45:45.468Z,93889.00
2023-04-14T01:46:45.506Z,93887.00
2023-04-14T01:47:45.557Z,93883.00
2023-04-14T01:48:45.581Z,93883.00
2023-04-14T01:49:45.716Z,93883.00
2023-04-14T01:50:45.670Z,93881.00
2023-04-14T01:51:45.734Z,93879.00
2023-04-14T01:52:45.819Z,93879.00
2023-04-14T01:53:45.847Z,93878.00
2023-04-14T01:54:45.961Z,93874.00
2023-04-14T01:55:45.982Z,93874.00
2023-04-14T01:56:46.015Z,93872.00
2023-04-14T01:57:46.136Z,93872.00
2023-04-14T01:58:46.135Z,93872.00
2023-04-14T01:59:46.342Z,93874.00
2023-04-14T02:00:46.260Z,93872.00
2023-04-14T02:01:46.374Z,93872.00
2023-04-14T02:02:46.729Z,93872.00
2023-04-14T02:03:46.500Z,93872.00
2023-04-14T02:04:46.554Z,93870.00
2023-04-14T02:05:46.545Z,93870.00
2023-04-14T02:06:46.621Z,93872.00
2023-04-14T02:07:46.673Z,93872.00
2023-04-14T02:08:46.778Z,93870.00
2023-04-14T02:09:46.829Z,93872.00
2023-04-14T02:10:46.843Z,93876.00
2023-04-14T02:11:46.937Z,93878.00
2023-04-14T02:12:46.941Z,93878.00
2023-04-14T02:13:47.051Z,93878.00
2023-04-14T02:14:47.058Z,93876.00
2023-04-14T02:15:47.132Z,93874.00
2023-04-14T02:16:47.178Z,93872.00
2023-04-14T02:17:47.216Z,93872.00
2023-04-14T02:18:47.188Z,93872.00
2023-04-14T02:19:47.264Z,93872.00
2023-04-14T02:20:47.309Z,93874.00
2023-04-14T02:21:47.377Z,93870.00
2023-04-14T02:22:47.380Z,93876.00
2023-04-14T02:23:47.382Z,93870.00
2023-04-14T02:24:47.448Z,93870.00
2023-04-14T02:25:47.495Z,93868.00
2023-04-14T02:26:47.499Z,93864.00
2023-04-14T02:27:47.568Z,93864.00
2023-04-14T02:28:47.632Z,93854.00
2023-04-14T02:29:47.675Z,93852.00
2023-04-14T02:30:47.789Z,93850.00
2023-04-14T02:31:47.804Z,93850.00
2023-04-14T02:32:47.873Z,93848.00
2023-04-14T02:33:48.373Z,93848.00
2023-04-14T02:34:47.914Z,93848.00
2023-04-14T02:35:47.939Z,93852.00
2023-04-14T02:36:48.011Z,93852.00
2023-04-14T02:37:48.094Z,93864.00
2023-04-14T02:38:48.109Z,93856.00
2023-04-14T02:39:48.186Z,93866.00
2023-04-14T02:40:48.225Z,93872.00
2023-04-14T02:41:48.282Z,93874.00
2023-04-14T02:42:48.343Z,93878.00
2023-04-14T02:43:48.390Z,93878.00
2023-04-14T02:44:48.456Z,93879.00
2023-04-14T02:45:48.548Z,93878.00
2023-04-14T02:46:48.578Z,93879.00
2023-04-14T02:47:48.687Z,93878.00
2023-04-14T02:48:48.695Z,93876.00
2023-04-14T02:49:48.690Z,93878.00
2023-04-14T02:50:48.772Z,93878.00
2023-04-14T02:51:48.839Z,93876.00
2023-04-14T02:52:48.925Z,93876.00
2023-04-14T02:53:49.026Z,93876.00
2023-04-14T02:54:49.012Z,93876.00
2023-04-14T02:55:49.043Z,93874.00
2023-04-14T02:56:49.087Z,93874.00
2023-04-14T02:57:49.118Z,93874.00
2023-04-14T02:58:49.195Z,93872.00
2023-04-14T02:59:49.244Z,93870.00
2023-04-14T03:00:49.319Z,93872.00
2023-04-14T03:01:49.406Z,93868.00
2023-04-14T03:02:49.680Z,93870.00
2023-04-14T03:03:49.536Z,93872.00
2023-04-14T03:04:49.566Z,93874.00
2023-04-14T03:05:49.626Z,93872.00
2023-04-14T03:06:49.668Z,93874.00
2023-04-14T03:07:49.698Z,93870.00
2023-04-14T03:08:49.843Z,93870.00
2023-04-14T03:09:49.856Z,93870.00
2023-04-14T03:10:49.901Z,93870.00
2023-04-14T03:11:50.013Z,93872.00
2023-04-14T03:12:50.013Z,93870.00
2023-04-14T03:13:50.122Z,93870.00
2023-04-14T03:14:50.154Z,93870.00
2023-04-14T03:15:50.295Z,93870.00
2023-04-14T03:16:52.288Z,93868.00
2023-04-14T03:17:50.317Z,93866.00
2023-04-14T03:18:50.276Z,93864.00
2023-04-14T03:19:50.235Z,93866.00
2023-04-14T03:20:50.197Z,93854.00
2023-04-14T03:21:50.213Z,93856.00
2023-04-14T03:22:50.185Z,93854.00
2023-04-14T03:23:50.198Z,93850.00
2023-04-14T03:24:50.163Z,93852.00
2023-04-14T03:25:50.217Z,93854.00
2023-04-14T03:26:50.173Z,93854.00
2023-04-14T03:27:50.207Z,93852.00
2023-04-14T03:28:50.159Z,93852.00
2023-04-14T03:29:50.205Z,93852.00
2023-04-14T03:30:50.209Z,93854.00
2023-04-14T03:31:50.285Z,93854.00
2023-04-14T03:32:50.141Z,93864.00
2023-04-14T03:33:50.115Z,93868.00
2023-04-14T03:34:50.126Z,93856.00
2023-04-14T03:35:50.095Z,93864.00
2023-04-14T03:36:50.105Z,93864.00
2023-04-14T03:37:50.075Z,93864.00
2023-04-14T03:38:50.075Z,93864.00
2023-04-14T03:39:50.175Z,93866.00
2023-04-14T03:40:50.060Z,93868.00
2023-04-14T03:41:50.201Z,93868.00
2023-04-14T03:42:50.110Z,93866.00
2023-04-14T03:43:50.022Z,93868.00
2023-04-14T03:44:50.030Z,93870.00
2023-04-14T03:45:49.991Z,93872.00
2023-04-14T03:46:50.038Z,93870.00
2023-04-14T03:47:50.104Z,93872.00
2023-04-14T03:48:50.017Z,93872.00
2023-04-14T03:49:50.025Z,93872.00
2023-04-14T03:50:49.993Z,93870.00
2023-04-14T03:51:49.966Z,93870.00
2023-04-14T03:52:49.972Z,93870.00
2023-04-14T03:53:50.050Z,93868.00
2023-04-14T03:54:50.200Z,93870.00
2023-04-14T03:55:50.201Z,93868.00
2023-04-14T03:56:50.175Z,93868.00
2023-04-14T03:57:50.255Z,93864.00
2023-04-14T03:58:50.290Z,93864.00
2023-04-14T03:59:50.350Z,93864.00
2023-04-14T04:00:50.422Z,93856.00
2023-04-14T04:01:50.479Z,93883.00
2023-04-14T04:02:50.715Z,93883.00
2023-04-14T04:03:50.763Z,93883.00
2023-04-14T04:04:50.580Z,93883.00
2023-04-14T04:05:50.666Z,93881.00
2023-04-14T04:06:50.726Z,93883.00
2023-04-14T04:07:50.782Z,93887.00
2023-04-14T04:08:50.810Z,93887.00
2023-04-14T04:09:50.840Z,93891.00
2023-04-14T04:10:50.889Z,93893.00
2023-04-14T04:11:50.929Z,93893.00
2023-04-14T04:12:50.964Z,93893.00
2023-04-14T04:13:51.052Z,93895.00
2023-04-14T04:14:51.062Z,93891.00
2023-04-14T04:15:51.147Z,93891.00
2023-04-14T04:16:51.231Z,93895.00
2023-04-14T04:17:51.284Z,93897.00
2023-04-14T04:18:51.257Z,93895.00
2023-04-14T04:19:51.311Z,93897.00
2023-04-14T04:20:51.408Z,93897.00
2023-04-14T04:21:51.422Z,93899.00
2023-04-14T04:22:51.511Z,93903.00
2023-04-14T04:23:51.691Z,93903.00
2023-04-14T04:24:51.619Z,93909.00
2023-04-14T04:25:51.704Z,93907.00
2023-04-14T04:26:51.710Z,93911.00
2023-04-14T04:27:51.783Z,93907.00
2023-04-14T04:28:51.899Z,93909.00
2023-04-14T04:29:51.904Z,93907.00
2023-04-14T04:30:52.069Z,93891.00
2023-04-14T04:31:54.519Z,93891.00
2023-04-14T04:32:52.037Z,93891.00
2023-04-14T04:33:51.974Z,93891.00
2023-04-14T04:34:51.984Z,93891.00
2023-04-14T04:35:51.922Z,93891.00
2023-04-14T04:36:51.940Z,93891.00
2023-04-14T04:37:51.951Z,93893.00
2023-04-14T04:38:52.474Z,93897.00
2023-04-14T04:39:51.918Z,93895.00
2023-04-14T04:40:51.932Z,93895.00
2023-04-14T04:41:51.928Z,93895.00
2023-04-14T04:42:51.920Z,93897.00
2023-04-14T04:43:51.884Z,93895.00
2023-04-14T04:44:51.895Z,93895.00
2023-04-14T04:45:52.126Z,93897.00
2023-04-14T04:46:51.870Z,93899.00
2023-04-14T04:47:51.911Z,93901.00
2023-04-14T04:48:51.895Z,93901.00
2023-04-14T04:49:51.918Z,93901.00
2023-04-14T04:50:51.846Z,93899.00
2023-04-14T04:51:51.848Z,93899.00
2023-04-14T04:52:51.835Z,93897.00
2023-04-14T04:53:51.781Z,93897.00
2023-04-14T04:54:51.812Z,93897.00
2023-04-14T04:55:51.875Z,93893.00
2023-04-14T04:56:51.778Z,93895.00
2023-04-14T04:57:51.960Z,93895.00
2023-04-14T04:58:51.851Z,93897.00
2023-04-14T04:59:51.750Z,93897.00
2023-04-14T05:00:51.770Z,93897.00
2023-04-14T05:01:51.814Z,93895.00
2023-04-14T05:02:51.899Z,93893.00
2023-04-14T05:03:51.786Z,93901.00
2023-04-14T05:04:51.826Z,93895.00
2023-04-14T05:05:51.839Z,93893.00
2023-04-14T05:06:51.912Z,93895.00
2023-04-14T05:07:52.009Z,93844.00
2023-04-14T05:08:52.128Z,93846.00
2023-04-14T05:09:52.069Z,93848.00
2023-04-14T05:10:52.132Z,93852.00
2023-04-14T05:11:52.200Z,93850.00
2023-04-14T05:12:52.253Z,93852.00
2023-04-14T05:13:52.492Z,93848.00
2023-04-14T05:14:52.368Z,93848.00
2023-04-14T05:15:52.442Z,93891.00
2023-04-14T05:16:52.421Z,93887.00
2023-04-14T05:17:52.526Z,93885.00
2023-04-14T05:18:52.493Z,93881.00
2023-04-14T05:19:52.502Z,93881.00
2023-04-14T05:20:52.459Z,93883.00
2023-04-14T05:21:52.509Z,93883.00
2023-04-14T05:22:52.525Z,93889.00
2023-04-14T05:23:52.554Z,93895.00
2023-04-14T05:24:52.589Z,93895.00
2023-04-14T05:25:52.864Z,93895.00
2023-04-14T05:27:11.845Z,93897.00
2023-04-14T05:27:53.635Z,93897.00
2023-04-14T05:28:52.670Z,93903.00
2023-04-14T05:29:52.566Z,93901.00
2023-04-14T05:30:52.629Z,93897.00
2023-04-14T05:31:52.695Z,93897.00
2023-04-14T05:32:52.693Z,93899.00
2023-04-14T05:33:52.779Z,93897.00
2023-04-14T05:34:52.599Z,93901.00
2023-04-14T05:35:53.469Z,93901.00
2023-04-14T05:36:52.513Z,93905.00
2023-04-14T05:37:52.649Z,93905.00
2023-04-14T05:38:53.514Z,93907.00
2023-04-14T05:39:52.531Z,93909.00
2023-04-14T05:40:52.783Z,93909.00
2023-04-14T05:41:52.494Z,93915.00
2023-04-14T05:42:53.030Z,93915.00
2023-04-14T05:43:52.506Z,93917.00
2023-04-14T05:44:52.524Z,93913.00
2023-04-14T05:45:52.704Z,93921.00
2023-04-14T05:46:52.657Z,93917.00
2023-04-14T05:47:52.659Z,93940.00
2023-04-14T05:48:52.656Z,93942.00
2023-04-14T05:49:52.710Z,93944.00
2023-04-14T05:50:52.764Z,93940.00
2023-04-14T05:51:52.779Z,93944.00
2023-04-14T05:52:52.768Z,93944.00
2023-04-14T05:53:52.735Z,93950.00
2023-04-14T05:54:52.963Z,93950.00
2023-04-14T05:55:52.895Z,93952.00
2023-04-14T05:56:52.752Z,93952.00
2023-04-14T05:57:52.757Z,93956.00
2023-04-14T05:58:52.774Z,93958.00
2023-04-14T05:59:52.816Z,93958.00
2023-04-14T06:00:52.878Z,93956.00
2023-04-14T06:01:53.309Z,93958.00
2023-04-14T06:02:53.177Z,93958.00
2023-04-14T06:03:53.264Z,93954.00
2023-04-14T06:04:53.238Z,93956.00
2023-04-14T06:05:53.216Z,93954.00
2023-04-14T06:06:53.182Z,93956.00
2023-04-14T06:07:53.250Z,93956.00
2023-04-14T06:08:53.353Z,93952.00
2023-04-14T06:09:53.360Z,93954.00
2023-04-14T06:10:53.478Z,93958.00
2023-04-14T06:11:53.423Z,93956.00
2023-04-14T06:12:53.473Z,93958.00
2023-04-14T06:13:53.489Z,93956.00
2023-04-14T06:14:53.497Z,93958.00
2023-04-14T06:15:53.533Z,93956.00
2023-04-14T06:16:53.545Z,93956.00
2023-04-14T06:17:53.644Z,93954.00
2023-04-14T06:18:53.614Z,93956.00
2023-04-14T06:19:53.658Z,93952.00
2023-04-14T06:20:53.732Z,93954.00
2023-04-14T06:21:53.741Z,93952.00
2023-04-14T06:22:53.598Z,93956.00
2023-04-14T06:23:53.800Z,93960.00
2023-04-14T06:24:53.768Z,93962.00
2023-04-14T06:25:53.722Z,93960.00
2023-04-14T06:26:53.682Z,93966.00
2023-04-14T06:27:54.219Z,93962.00
2023-04-14T06:28:53.790Z,93962.00
2023-04-14T06:29:53.730Z,93956.00
2023-04-14T06:30:53.700Z,93928.00
2023-04-14T06:31:53.771Z,93928.00
2023-04-14T06:32:53.808Z,93928.00
2023-04-14T06:33:53.829Z,93926.00
2023-04-14T06:34:53.773Z,93925.00
2023-04-14T06:35:53.841Z,93926.00
2023-04-14T06:36:53.898Z,93958.00
2023-04-14T06:37:53.966Z,93948.00
2023-04-14T06:38:55.097Z,93948.00
2023-04-14T06:39:54.098Z,93950.00
2023-04-14T06:40:55.928Z,93946.00
2023-04-14T06:41:54.144Z,93944.00
2023-04-14T06:42:54.197Z,93948.00
2023-04-14T06:43:54.314Z,93944.00
2023-04-14T06:44:54.317Z,93944.00
2023-04-14T06:46:01.027Z,93944.00
2023-04-14T06:46:56.360Z,93944.00
2023-04-14T06:47:56.102Z,93925.00
2023-04-14T06:48:54.442Z,93925.00
2023-04-14T06:49:54.281Z,93926.00
2023-04-14T06:50:54.429Z,93925.00
2023-04-14T06:51:54.371Z,93925.00
2023-04-14T06:52:54.566Z,93946.00
2023-04-14T06:53:54.332Z,93928.00
2023-04-14T06:54:54.384Z,93948.00
2023-04-14T06:55:54.545Z,93950.00
2023-04-14T06:56:54.240Z,93952.00
2023-04-14T06:57:54.401Z,93956.00
2023-04-14T06:58:54.540Z,93950.00
2023-04-14T06:59:54.221Z,93944.00
2023-04-14T07:00:54.348Z,93942.00
2023-04-14T07:01:54.389Z,93940.00
2023-04-14T07:02:54.635Z,93942.00
2023-04-14T07:03:54.445Z,93946.00
2023-04-14T07:04:54.260Z,93950.00
2023-04-14T07:05:54.147Z,93948.00
2023-04-14T07:06:54.261Z,93944.00
2023-04-14T07:07:54.191Z,93942.00
2023-04-14T07:08:54.375Z,93940.00
2023-04-14T07:09:54.234Z,93940.00
2023-04-14T07:10:54.127Z,93944.00
2023-04-14T07:11:54.219Z,93944.00
2023-04-14T07:12:54.623Z,93942.00
2023-04-14T07:13:55.228Z,93938.00
2023-04-14T07:14:54.415Z,93944.00
2023-04-14T07:15:54.366Z,93942.00
2023-04-14T07:16:54.364Z,93944.00
2023-04-14T07:17:54.455Z,93942.00
2023-04-14T07:18:54.333Z,93942.00
2023-04-14T07:19:54.342Z,93948.00
2023-04-14T07:20:54.458Z,93950.00
2023-04-14T07:21:54.583Z,93950.00
2023-04-14T07:22:54.532Z,93946.00
2023-04-14T07:23:55.057Z,93948.00
2023-04-14T07:24:54.630Z,93942.00
2023-04-14T07:25:54.673Z,93944.00
2023-04-14T07:26:54.786Z,93944.00
2023-04-14T07:28:03.175Z,93950.00
2023-04-14T07:28:55.828Z,93944.00
2023-04-14T07:29:54.829Z,93950.00
2023-04-14T07:30:54.792Z,93952.00
2023-04-14T07:31:54.892Z,93930.00
2023-04-14T07:32:54.989Z,93934.00
2023-04-14T07:33:54.895Z,93936.00
2023-04-14T07:34:55.585Z,93934.00
2023-04-14T07:36:02.879Z,93934.00
2023-04-14T07:36:56.033Z,93938.00
2023-04-14T07:38:01.518Z,93958.00
2023-04-14T07:38:55.510Z,93960.00
2023-04-14T07:39:54.908Z,93962.00
2023-04-14T07:40:54.985Z,93966.00
2023-04-14T07:41:54.948Z,93964.00
2023-04-14T07:42:55.516Z,93966.00
2023-04-14T07:43:54.921Z,93966.00
2023-04-14T07:44:55.538Z,93968.00
2023-04-14T07:45:54.963Z,93968.00
2023-04-14T07:46:54.873Z,93966.00
2023-04-14T07:47:57.555Z,93968.00
2023-04-14T07:48:54.858Z,93970.00
2023-04-14T07:49:54.901Z,93974.00
2023-04-14T07:50:54.907Z,93970.00
2023-04-14T07:51:55.076Z,93972.00
2023-04-14T07:52:55.283Z,93956.00
2023-04-14T07:53:54.890Z,93958.00
2023-04-14T07:54:54.832Z,93960.00
2023-04-14T07:55:54.840Z,93960.00
2023-04-14T07:56:54.793Z,93954.00
2023-04-14T07:57:54.803Z,93952.00
2023-04-14T07:58:54.822Z,93956.00
2023-04-14T07:59:54.813Z,93954.00
2023-04-14T08:00:54.818Z,93952.00
2023-04-14T08:01:54.905Z,93952.00
2023-04-14T08:02:55.034Z,93958.00
2023-04-14T08:03:54.946Z,93964.00
2023-04-14T08:04:54.973Z,93968.00
2023-04-14T08:05:54.826Z,93968.00
2023-04-14T08:06:54.764Z,93968.00
2023-04-14T08:07:54.726Z,93970.00
2023-04-14T08:08:54.727Z,93972.00
2023-04-14T08:09:54.750Z,93970.00
2023-04-14T08:10:54.846Z,93972.00
2023-04-14T08:11:54.826Z,93997.00
2023-04-14T08:12:54.799Z,93991.00
2023-04-14T08:13:54.720Z,93989.00
2023-04-14T08:14:54.718Z,93993.00
2023-04-14T08:15:54.772Z,93991.00
2023-04-14T08:16:54.698Z,93995.00
2023-04-14T08:17:54.746Z,93999.00
2023-04-14T08:18:55.793Z,93997.00
2023-04-14T08:19:54.639Z,93995.00
2023-04-14T08:20:54.667Z,93997.00
2023-04-14T08:21:54.728Z,93995.00
2023-04-14T08:22:55.037Z,93995.00
2023-04-14T08:23:54.614Z,93999.00
2023-04-14T08:24:54.622Z,93981.00
2023-04-14T08:25:54.699Z,93985.00
2023-04-14T08:26:55.202Z,93983.00
2023-04-14T08:27:54.656Z,93980.00
2023-04-14T08:30:13.412Z,93983.00
2023-04-14T08:31:13.514Z,93980.00
2023-04-14T08:32:13.495Z,93983.00
2023-04-14T08:33:13.407Z,93981.00
2023-04-14T08:34:13.603Z,93989.00
2023-04-14T08:35:38.943Z,93985.00
2023-04-14T08:36:14.362Z,93987.00
2023-04-14T08:37:13.346Z,93978.00
2023-04-14T08:38:13.345Z,93983.00
2023-04-14T08:39:13.300Z,94003.00
2023-04-14T08:40:13.314Z,93999.00
2023-04-14T08:41:13.383Z,94001.00
2023-04-14T08:42:13.318Z,94003.00
2023-04-14T08:43:15.488Z,94005.00
2023-04-14T08:44:13.876Z,94007.00
2023-04-14T08:45:13.329Z,94003.00
2023-04-14T08:46:13.385Z,93999.00
2023-04-14T08:47:13.359Z,93999.00
2023-04-14T08:48:13.365Z,94001.00
2023-04-14T08:49:13.419Z,93999.00
2023-04-14T08:50:13.519Z,93999.00
2023-04-14T08:51:13.646Z,93995.00
2023-04-14T08:52:13.707Z,93995.00
2023-04-14T08:53:14.009Z,93999.00
2023-04-14T08:54:13.676Z,93999.00
2023-04-14T08:55:13.666Z,94003.00
2023-04-14T08:56:13.682Z,94001.00
2023-04-14T08:57:13.755Z,94001.00
2023-04-14T08:58:13.751Z,94001.00
2023-04-14T08:59:13.756Z,94005.00
2023-04-14T09:00:13.763Z,94001.00
2023-04-14T09:01:13.887Z,93999.00
2023-04-14T09:02:13.956Z,93997.00
2023-04-14T09:03:14.069Z,93995.00
2023-04-14T09:04:14.148Z,93993.00
2023-04-14T09:05:13.899Z,93995.00
2023-04-14T09:06:13.946Z,93997.00
2023-04-14T09:07:13.913Z,93995.00
2023-04-14T09:08:14.037Z,93995.00
2023-04-14T09:09:14.156Z,93995.00
2023-04-14T09:10:14.141Z,93993.00
2023-04-14T09:11:14.036Z,93989.00
2023-04-14T09:12:13.965Z,93993.00
2023-04-14T09:13:13.999Z,93995.00
2023-04-14T09:14:14.082Z,93944.00
2023-04-14T09:15:14.076Z,93942.00
2023-04-14T09:16:14.105Z,93946.00
2023-04-14T09:17:14.155Z,93950.00
2023-04-14T09:18:14.205Z,93952.00
2023-04-14T09:19:14.209Z,93952.00
2023-04-14T09:20:38.418Z,93950.00
2023-04-14T09:21:50.856Z,93948.00
2023-04-14T09:22:15.180Z,93950.00
2023-04-14T09:23:14.321Z,93954.00
2023-04-14T09:24:14.154Z,93952.00
2023-04-14T09:25:14.137Z,93958.00
2023-04-14T09:26:14.149Z,93958.00
2023-04-14T09:27:14.112Z,93960.00
2023-04-14T09:28:14.122Z,93962.00
2023-04-14T09:29:14.468Z,93995.00
2023-04-14T09:30:14.160Z,94001.00
2023-04-14T09:31:14.315Z,94001.00
2023-04-14T09:32:14.086Z,93993.00
2023-04-14T09:33:14.130Z,93991.00
2023-04-14T09:34:14.066Z,93989.00
2023-04-14T09:35:14.101Z,93995.00
2023-04-14T09:36:14.095Z,93995.00
2023-04-14T09:37:14.147Z,94021.00
2023-04-14T09:38:14.075Z,94021.00
2023-04-14T09:39:14.024Z,94023.00
2023-04-14T09:40:14.035Z,94023.00
2023-04-14T09:41:14.039Z,94025.00
2023-04-14T09:42:13.995Z,94028.00
2023-04-14T09:43:14.048Z,94032.00
2023-04-14T09:44:14.174Z,94030.00
2023-04-14T09:45:14.018Z,94034.00
2023-04-14T09:46:14.394Z,94028.00
2023-04-14T09:47:13.987Z,94027.00
2023-04-14T09:48:13.992Z,94025.00
2023-04-14T09:49:13.934Z,94030.00
2023-04-14T09:50:13.991Z,94030.00
2023-04-14T09:51:13.932Z,94028.00
2023-04-14T09:52:13.892Z,94030.00
2023-04-14T09:53:13.934Z,94034.00
2023-04-14T09:54:13.966Z,94032.00
2023-04-14T09:55:13.922Z,94028.00
2023-04-14T09:56:13.961Z,94019.00
2023-04-14T09:57:13.900Z,94019.00
2023-04-14T09:58:13.892Z,94023.00
2023-04-14T09:59:13.926Z,94025.00
2023-04-14T10:00:13.932Z,94025.00
2023-04-14T10:01:13.926Z,94023.00
2023-04-14T10:02:13.964Z,94019.00
2023-04-14T10:03:13.975Z,94021.00
2023-04-14T10:04:13.967Z,94021.00
2023-04-14T10:05:14.122Z,94021.00
2023-04-14T10:06:13.967Z,94025.00
2023-04-14T10:07:14.000Z,94025.00
2023-04-14T10:08:14.143Z,94021.00
2023-04-14T10:09:14.130Z,94021.00
2023-04-14T10:10:14.602Z,94017.00
2023-04-14T10:11:14.246Z,94013.00
2023-04-14T10:12:14.605Z,94017.00
2023-04-14T10:13:14.384Z,94011.00
2023-04-14T10:14:14.474Z,94013.00
2023-04-14T10:15:14.580Z,94013.00
2023-04-14T10:16:14.599Z,94011.00
2023-04-14T10:17:14.716Z,94009.00
2023-04-14T10:18:14.730Z,94011.00
2023-04-14T10:19:14.728Z,94007.00
2023-04-14T10:20:15.008Z,94001.00
2023-04-14T10:21:14.821Z,93999.00
2023-04-14T10:22:15.546Z,94001.00
2023-04-14T10:23:14.931Z,93999.00
2023-04-14T10:24:14.950Z,93997.00
2023-04-14T10:25:15.041Z,94001.00
2023-04-14T10:26:15.068Z,93980.00
2023-04-14T10:27:15.146Z,93980.00
2023-04-14T10:28:15.526Z,93980.00
2023-04-14T10:29:15.201Z,93981.00
2023-04-14T10:30:15.330Z,93981.00
2023-04-14T10:31:15.343Z,93983.00
2023-04-14T10:32:15.411Z,93985.00
2023-04-14T10:33:15.625Z,93983.00
2023-04-14T10:34:15.321Z,93983.00
2023-04-14T10:35:15.392Z,93987.00
2023-04-14T10:36:15.728Z,93983.00
2023-04-14T10:37:15.366Z,93980.00
2023-04-14T10:38:15.348Z,93980.00
2023-04-14T10:39:15.348Z,93976.00
2023-04-14T10:40:15.682Z,93976.00
2023-04-14T10:41:15.374Z,93974.00
2023-04-14T10:42:15.363Z,93972.00
2023-04-14T10:43:15.387Z,93976.00
2023-04-14T10:44:15.399Z,93976.00
2023-04-14T10:45:15.615Z,93972.00
2023-04-14T10:46:17.427Z,93972.00
2023-04-14T10:47:15.610Z,93970.00
2023-04-14T10:48:15.506Z,93966.00
2023-04-14T10:49:15.417Z,93964.00
2023-04-14T10:50:15.387Z,93966.00
2023-04-14T10:51:15.346Z,93962.00
2023-04-14T10:52:15.335Z,93960.00
2023-04-14T10:53:15.478Z,93960.00
2023-04-14T10:54:15.517Z,93964.00
2023-04-14T10:55:15.387Z,93962.00
2023-04-14T10:56:15.926Z,93962.00
2023-04-14T10:57:15.346Z,93954.00
2023-04-14T10:58:15.347Z,93950.00
2023-04-14T10:59:15.343Z,93950.00
2023-04-14T11:00:15.411Z,93948.00
2023-04-14T11:01:15.445Z,93948.00
2023-04-14T11:02:16.088Z,93950.00
2023-04-14T11:03:15.548Z,93948.00
2023-04-14T11:04:15.403Z,93948.00
2023-04-14T11:05:15.263Z,93946.00
2023-04-14T11:06:15.476Z,93948.00
2023-04-14T11:07:15.304Z,93946.00
2023-04-14T11:08:15.346Z,93944.00
2023-04-14T11:09:15.464Z,93942.00
2023-04-14T11:10:15.271Z,93942.00
2023-04-14T11:11:15.273Z,93966.00
2023-04-14T11:12:15.275Z,93966.00
2023-04-14T11:13:17.525Z,93964.00
2023-04-14T11:14:24.115Z,93968.00
2023-04-14T11:15:15.392Z,93964.00
2023-04-14T11:16:16.075Z,93964.00
2023-04-14T11:17:15.368Z,93960.00
2023-04-14T11:18:15.592Z,93960.00
2023-04-14T11:19:15.366Z,93960.00
2023-04-14T11:20:15.318Z,93962.00
2023-04-14T11:21:15.588Z,93958.00
2023-04-14T11:22:15.364Z,93958.00
2023-04-14T11:23:15.329Z,93960.00
2023-04-14T11:24:15.272Z,93956.00
2023-04-14T11:25:15.404Z,93952.00
2023-04-14T11:26:15.291Z,93954.00
2023-04-14T11:27:15.269Z,93956.00
2023-04-14T11:28:15.399Z,93960.00
2023-04-14T11:29:15.263Z,93960.00
2023-04-14T11:30:15.284Z,93960.00
2023-04-14T11:31:15.614Z,93964.00
2023-04-14T11:32:15.294Z,93968.00
2023-04-14T11:33:15.310Z,93966.00
2023-04-14T11:34:15.222Z,93962.00
2023-04-14T11:35:15.344Z,93960.00
2023-04-14T11:36:15.296Z,93958.00
2023-04-14T11:37:15.230Z,93958.00
2023-04-14T11:38:15.243Z,93954.00
2023-04-14T11:39:15.171Z,93952.00
2023-04-14T11:40:15.204Z,93950.00
2023-04-14T11:41:15.190Z,93948.00
2023-04-14T11:42:15.155Z,93946.00
2023-04-14T11:43:15.161Z,93948.00
2023-04-14T11:44:15.164Z,93952.00
2023-04-14T11:45:15.120Z,93952.00
2023-04-14T11:46:15.200Z,93952.00